Time;durP1;ratioP1;P1;durP2;ratioP2;P2;SDS_P1;SDS_P2;PMS_P1;PMS_P2;Temp;Humidity;BMP_temperature;BMP_pressure;BME280_temperature;BME280_humidity;BME280_pressure;Samples;Min_cycle;Max_cycle;Signal;HPM_P1;HPM_P2
2023/04/29 00:01:37;;;;;;;28.02;15.98;;;;;;;;;;4953633;28;20500;-78
2023/04/29 00:04:03;;;;;;;30.83;16.88;;;;;;;;;;4924350;29;20043;-80
2023/04/29 00:06:30;;;;;;;28.58;16.65;;;;;;;;;;4941918;28;20062;-80
2023/04/29 00:08:57;;;;;;;30.08;16.67;;;;;;;;;;4954162;28;20048;-80
2023/04/29 00:11:24;;;;;;;32.75;17.50;;;;;;;;;;4954287;28;20071;-79
2023/04/29 00:13:53;;;;;;;34.35;18.30;;;;;;;;;;4936641;28;20540;-80
2023/04/29 00:16:19;;;;;;;35.08;19.30;;;;;;;;;;4935961;28;20047;-79
2023/04/29 00:18:46;;;;;;;35.33;19.92;;;;;;;;;;4952314;28;20522;-78
2023/04/29 00:21:13;;;;;;;35.55;20.15;;;;;;;;;;4937889;28;20487;-79
2023/04/29 00:23:39;;;;;;;34.80;19.63;;;;;;;;;;4937377;29;20052;-78
2023/04/29 00:26:06;;;;;;;38.33;19.63;;;;;;;;;;4955944;28;20040;-79
2023/04/29 00:28:33;;;;;;;35.47;20.05;;;;;;;;;;4942007;28;20071;-78
2023/04/29 00:31:00;;;;;;;38.97;20.17;;;;;;;;;;4958249;28;20223;-78
2023/04/29 00:33:26;;;;;;;38.00;20.92;;;;;;;;;;4967845;28;20047;-78
2023/04/29 00:35:53;;;;;;;44.53;21.55;;;;;;;;;;4968679;28;20126;-77
2023/04/29 00:38:20;;;;;;;39.65;21.90;;;;;;;;;;4952354;28;20047;-79
2023/04/29 00:40:46;;;;;;;42.42;20.88;;;;;;;;;;4954392;28;20144;-77
2023/04/29 00:43:13;;;;;;;37.65;21.15;;;;;;;;;;4955207;29;20043;-79
2023/04/29 00:45:40;;;;;;;38.13;21.90;;;;;;;;;;4955826;29;20115;-79
2023/04/29 00:48:06;;;;;;;36.65;19.70;;;;;;;;;;4976795;28;20098;-79
2023/04/29 00:50:33;;;;;;;35.80;19.73;;;;;;;;;;4979136;28;20043;-78
2023/04/29 00:53:00;;;;;;;36.53;20.48;;;;;;;;;;4979458;28;20066;-78
2023/04/29 00:55:30;;;;;;;38.92;20.45;;;;;;;;;;4976888;28;20043;-79
2023/04/29 00:57:56;;;;;;;35.67;20.00;;;;;;;;;;4977463;28;20126;-77
2023/04/29 01:00:25;;;;;;;33.95;17.45;;;;;;;;;;4960248;28;20047;-79
2023/04/29 01:02:56;;;;;;;35.83;18.35;;;;;;;;;;4960007;28;20146;-79
2023/04/29 01:05:23;;;;;;;30.63;16.45;;;;;;;;;;4975217;28;20043;-79
2023/04/29 01:08:11;;;;;;;29.38;15.93;;;;;;;;;;4959113;28;20058;-78
2023/04/29 01:10:43;;;;;;;26.10;14.45;;;;;;;;;;4957071;28;20098;-79
2023/04/29 01:13:16;;;;;;;30.60;13.68;;;;;;;;;;4955193;28;20039;-79
2023/04/29 01:15:47;;;;;;;23.98;14.90;;;;;;;;;;4970136;28;20062;-80
2023/04/29 01:18:24;;;;;;;25.40;15.25;;;;;;;;;;4957568;29;20047;-78
2023/04/29 01:20:51;;;;;;;31.80;17.75;;;;;;;;;;4978099;28;20044;-78
2023/04/29 01:23:18;;;;;;;34.33;18.23;;;;;;;;;;4969244;28;20349;-80
2023/04/29 01:25:45;;;;;;;32.63;18.17;;;;;;;;;;4984533;28;20106;-79
2023/04/29 01:28:37;;;;;;;40.15;19.85;;;;;;;;;;4967046;28;20043;-79
2023/04/29 01:31:11;;;;;;;42.15;20.70;;;;;;;;;;4962536;28;20516;-80
2023/04/29 01:33:45;;;;;;;40.88;22.23;;;;;;;;;;4960592;28;20043;-79
2023/04/29 01:36:12;;;;;;;43.85;21.92;;;;;;;;;;4927286;29;20051;-80
2023/04/29 01:38:43;;;;;;;42.33;23.23;;;;;;;;;;4926909;29;20040;-79
2023/04/29 01:41:14;;;;;;;45.42;24.80;;;;;;;;;;4941573;29;20134;-78
2023/04/29 01:43:42;;;;;;;43.33;24.80;;;;;;;;;;4940052;29;20044;-79
2023/04/29 01:46:19;;;;;;;41.67;23.05;;;;;;;;;;4933352;29;20067;-79
2023/04/29 01:48:51;;;;;;;43.00;23.58;;;;;;;;;;4946230;29;20055;-78
2023/04/29 01:51:18;;;;;;;43.05;24.30;;;;;;;;;;4943294;29;20047;-79
2023/04/29 01:53:44;;;;;;;39.72;22.90;;;;;;;;;;4944904;29;20051;-77
2023/04/29 01:56:11;;;;;;;39.03;23.05;;;;;;;;;;4940997;28;20053;-80
2023/04/29 01:59:04;;;;;;;37.30;22.13;;;;;;;;;;4941375;28;20056;-80
2023/04/29 02:01:46;;;;;;;39.03;22.45;;;;;;;;;;4954490;28;20043;-81
2023/04/29 02:04:16;;;;;;;34.85;20.77;;;;;;;;;;4942956;28;20104;-78
2023/04/29 02:06:43;;;;;;;36.60;22.20;;;;;;;;;;4960725;28;20039;-78
2023/04/29 02:09:09;;;;;;;35.70;21.40;;;;;;;;;;4925383;28;20055;-79
2023/04/29 02:11:36;;;;;;;38.63;22.33;;;;;;;;;;4942581;28;20044;-82
2023/04/29 02:14:06;;;;;;;36.88;21.92;;;;;;;;;;4937630;28;20082;-82
2023/04/29 02:16:32;;;;;;;33.97;20.63;;;;;;;;;;4918629;28;20048;-80
2023/04/29 02:19:02;;;;;;;35.15;21.45;;;;;;;;;;4950298;28;20066;-78
2023/04/29 02:21:30;;;;;;;34.47;21.38;;;;;;;;;;4935264;28;20055;-81
2023/04/29 02:23:59;;;;;;;33.22;20.00;;;;;;;;;;4935899;28;20044;-79
2023/04/29 02:26:26;;;;;;;34.15;21.40;;;;;;;;;;4934046;28;20528;-79
2023/04/29 02:28:56;;;;;;;34.28;20.63;;;;;;;;;;4940290;28;20047;-82
2023/04/29 02:31:22;;;;;;;34.80;21.25;;;;;;;;;;4972896;28;20071;-82
2023/04/29 02:33:49;;;;;;;39.80;22.13;;;;;;;;;;4958581;28;20493;-80
2023/04/29 02:36:17;;;;;;;34.80;21.50;;;;;;;;;;4960382;28;20217;-81
2023/04/29 02:38:43;;;;;;;33.47;21.10;;;;;;;;;;4959591;28;20066;-79
2023/04/29 02:41:14;;;;;;;37.70;22.15;;;;;;;;;;4943784;28;20055;-80
2023/04/29 02:43:41;;;;;;;38.53;21.65;;;;;;;;;;4970756;28;20047;-79
2023/04/29 02:46:08;;;;;;;34.60;21.63;;;;;;;;;;4970285;28;20043;-79
2023/04/29 02:48:35;;;;;;;36.67;21.83;;;;;;;;;;4965806;28;20196;-80
2023/04/29 02:51:02;;;;;;;35.63;21.88;;;;;;;;;;4967825;28;20527;-79
2023/04/29 02:53:31;;;;;;;38.70;22.50;;;;;;;;;;4964153;28;20047;-79
2023/04/29 02:55:58;;;;;;;38.10;22.38;;;;;;;;;;4956215;28;20047;-77
2023/04/29 02:58:25;;;;;;;35.75;21.40;;;;;;;;;;4966308;28;20491;-78
2023/04/29 03:00:52;;;;;;;34.20;21.50;;;;;;;;;;4944545;28;20039;-78
2023/04/29 03:03:18;;;;;;;32.38;20.85;;;;;;;;;;4957871;28;21360;-80
2023/04/29 03:05:45;;;;;;;39.95;22.75;;;;;;;;;;4958501;28;20161;-80
2023/04/29 03:08:12;;;;;;;34.08;20.50;;;;;;;;;;4943602;28;20063;-79
2023/04/29 03:10:40;;;;;;;33.80;20.48;;;;;;;;;;4955789;28;20393;-81
2023/04/29 03:13:07;;;;;;;35.80;20.83;;;;;;;;;;4954114;28;20071;-80
2023/04/29 03:15:35;;;;;;;36.58;21.05;;;;;;;;;;4940258;28;20130;-80
2023/04/29 03:18:03;;;;;;;43.55;22.02;;;;;;;;;;4958388;28;20059;-80
2023/04/29 03:20:32;;;;;;;33.50;20.38;;;;;;;;;;4958693;28;20055;-80
2023/04/29 03:23:01;;;;;;;34.03;20.27;;;;;;;;;;4943170;28;20057;-79
2023/04/29 03:25:28;;;;;;;36.85;20.75;;;;;;;;;;4959517;28;20053;-78
2023/04/29 03:27:56;;;;;;;33.05;20.50;;;;;;;;;;4961159;28;20051;-80
2023/04/29 03:30:25;;;;;;;33.63;19.80;;;;;;;;;;4957170;28;20051;-80
2023/04/29 03:32:55;;;;;;;34.22;19.45;;;;;;;;;;4973679;28;20114;-81
2023/04/29 03:35:22;;;;;;;33.40;18.80;;;;;;;;;;4956878;28;20047;-79
2023/04/29 03:38:07;;;;;;;30.83;18.67;;;;;;;;;;4964228;28;20122;-78
2023/04/29 03:40:35;;;;;;;33.30;19.02;;;;;;;;;;4951120;28;20047;-78
2023/04/29 03:43:02;;;;;;;31.70;17.70;;;;;;;;;;4965276;28;20050;-78
2023/04/29 03:45:29;;;;;;;29.80;18.17;;;;;;;;;;4962179;28;20118;-78
2023/04/29 03:47:56;;;;;;;30.20;18.58;;;;;;;;;;4978766;28;20055;-80
2023/04/29 03:50:23;;;;;;;31.58;17.98;;;;;;;;;;4960626;28;20067;-78
2023/04/29 03:52:49;;;;;;;28.88;16.98;;;;;;;;;;4942709;28;20067;-80
2023/04/29 03:55:17;;;;;;;30.63;17.58;;;;;;;;;;4955046;28;20659;-80
2023/04/29 03:57:44;;;;;;;28.67;17.27;;;;;;;;;;4951822;28;20055;-80
2023/04/29 04:00:12;;;;;;;26.95;16.70;;;;;;;;;;4955978;28;20099;-79
2023/04/29 04:02:39;;;;;;;33.17;17.63;;;;;;;;;;4940513;29;20074;-80
2023/04/29 04:05:09;;;;;;;26.33;16.58;;;;;;;;;;4922176;28;20046;-80
2023/04/29 04:07:38;;;;;;;27.17;17.00;;;;;;;;;;4936657;28;20175;-80
2023/04/29 04:10:23;;;;;;;29.20;16.70;;;;;;;;;;4938437;29;20051;-82
2023/04/29 04:12:50;;;;;;;25.73;16.17;;;;;;;;;;4935858;28;20039;-83
2023/04/29 04:15:17;;;;;;;27.30;16.92;;;;;;;;;;4937902;28;20044;-81
2023/04/29 04:17:49;;;;;;;25.50;16.27;;;;;;;;;;4954684;28;20043;-81
2023/04/29 04:20:16;;;;;;;27.83;17.10;;;;;;;;;;4953929;28;20066;-80
2023/04/29 04:22:43;;;;;;;27.75;16.70;;;;;;;;;;4956669;28;20132;-79
2023/04/29 04:25:21;;;;;;;28.20;16.85;;;;;;;;;;4945891;28;20126;-81
2023/04/29 04:27:48;;;;;;;30.67;17.40;;;;;;;;;;4958395;28;20793;-82
2023/04/29 04:30:27;;;;;;;29.67;16.92;;;;;;;;;;4956524;28;20098;-80
2023/04/29 04:32:54;;;;;;;28.80;17.30;;;;;;;;;;4939848;28;20055;-80
2023/04/29 04:35:20;;;;;;;29.95;16.85;;;;;;;;;;4940753;28;20605;-82
2023/04/29 04:37:47;;;;;;;30.92;17.80;;;;;;;;;;4946845;28;20111;-80
2023/04/29 04:40:14;;;;;;;29.73;17.33;;;;;;;;;;4947976;28;20104;-78
2023/04/29 04:43:00;;;;;;;28.75;16.92;;;;;;;;;;4947369;28;20059;-81
2023/04/29 04:45:28;;;;;;;32.75;18.10;;;;;;;;;;4977710;28;20036;-80
2023/04/29 04:47:55;;;;;;;34.03;18.38;;;;;;;;;;4954818;28;20064;-80
2023/04/29 04:50:29;;;;;;;30.60;18.55;;;;;;;;;;4979520;28;20043;-81
2023/04/29 04:52:56;;;;;;;34.47;18.52;;;;;;;;;;4962847;28;20054;-80
2023/04/29 04:55:42;;;;;;;31.52;18.02;;;;;;;;;;4952321;28;20055;-80
2023/04/29 04:58:09;;;;;;;30.33;17.77;;;;;;;;;;4960039;28;20055;-82
2023/04/29 05:00:37;;;;;;;32.72;18.58;;;;;;;;;;4957733;29;20050;-81
2023/04/29 05:03:04;;;;;;;31.77;18.23;;;;;;;;;;4952659;28;20043;-81
2023/04/29 05:05:32;;;;;;;28.42;17.75;;;;;;;;;;4950356;28;20039;-82
2023/04/29 05:07:58;;;;;;;29.25;17.98;;;;;;;;;;4950066;28;20051;-80
2023/04/29 05:10:34;;;;;;;28.02;17.52;;;;;;;;;;4960951;28;20043;-79
2023/04/29 05:13:01;;;;;;;35.15;17.65;;;;;;;;;;4961880;28;20531;-79
2023/04/29 05:15:28;;;;;;;32.38;17.83;;;;;;;;;;4952537;28;20135;-81
2023/04/29 05:17:57;;;;;;;27.63;16.98;;;;;;;;;;4950798;28;20094;-79
2023/04/29 05:20:24;;;;;;;34.15;17.80;;;;;;;;;;4930500;28;20040;-82
2023/04/29 05:22:51;;;;;;;30.50;17.90;;;;;;;;;;4944173;28;20126;-80
2023/04/29 05:25:19;;;;;;;28.48;17.42;;;;;;;;;;4951451;28;20168;-78
2023/04/29 05:27:45;;;;;;;26.13;16.85;;;;;;;;;;4963250;28;20043;-81
2023/04/29 05:30:16;;;;;;;28.40;16.92;;;;;;;;;;4943930;28;20440;-80
2023/04/29 05:32:44;;;;;;;30.02;17.10;;;;;;;;;;4928152;29;20425;-79
2023/04/29 05:35:14;;;;;;;27.10;16.77;;;;;;;;;;4943644;29;20115;-80
2023/04/29 05:37:41;;;;;;;26.92;15.50;;;;;;;;;;4944189;28;20062;-81
2023/04/29 05:40:26;;;;;;;27.07;16.13;;;;;;;;;;4945922;28;20118;-80
2023/04/29 05:43:06;;;;;;;26.00;16.25;;;;;;;;;;4927937;28;20287;-80
2023/04/29 05:45:32;;;;;;;25.55;15.95;;;;;;;;;;4938338;28;20064;-81
2023/04/29 05:47:59;;;;;;;24.33;15.13;;;;;;;;;;4938842;28;20051;-80
2023/04/29 05:50:26;;;;;;;26.42;15.63;;;;;;;;;;4957775;28;20051;-80
2023/04/29 05:52:55;;;;;;;26.73;16.15;;;;;;;;;;4965049;28;20142;-80
2023/04/29 05:55:23;;;;;;;29.70;15.98;;;;;;;;;;4938412;28;20126;-80
2023/04/29 05:57:50;;;;;;;27.15;15.88;;;;;;;;;;4938989;28;20522;-79
2023/04/29 06:00:16;;;;;;;25.55;15.80;;;;;;;;;;4966053;28;20186;-78
2023/04/29 06:02:44;;;;;;;28.52;16.13;;;;;;;;;;4949935;29;20053;-80
2023/04/29 06:05:24;;;;;;;27.63;15.15;;;;;;;;;;4949883;28;20043;-81
2023/04/29 06:08:06;;;;;;;28.33;15.55;;;;;;;;;;4950240;28;20627;-80
2023/04/29 06:10:51;;;;;;;25.08;15.02;;;;;;;;;;4953543;28;20049;-78
2023/04/29 06:13:17;;;;;;;26.02;15.07;;;;;;;;;;4968188;28;20072;-81
2023/04/29 06:15:44;;;;;;;28.40;15.32;;;;;;;;;;4967059;28;20054;-81
2023/04/29 06:18:12;;;;;;;29.92;14.85;;;;;;;;;;4950567;28;20043;-81
2023/04/29 06:20:39;;;;;;;25.27;14.65;;;;;;;;;;4965396;28;20055;-80
2023/04/29 06:23:06;;;;;;;27.40;14.05;;;;;;;;;;4948812;28;20112;-79
2023/04/29 06:25:33;;;;;;;24.23;13.13;;;;;;;;;;4945446;28;20142;-80
2023/04/29 06:28:07;;;;;;;21.27;12.48;;;;;;;;;;4955231;28;20050;-78
2023/04/29 06:30:35;;;;;;;25.42;13.60;;;;;;;;;;4943014;28;20039;-79
2023/04/29 06:33:01;;;;;;;26.95;14.27;;;;;;;;;;4931246;28;20552;-79
2023/04/29 06:35:28;;;;;;;24.50;13.48;;;;;;;;;;4931040;28;20048;-80
2023/04/29 06:38:30;;;;;;;26.98;14.43;;;;;;;;;;4941634;28;20119;-78
2023/04/29 06:41:15;;;;;;;26.95;14.05;;;;;;;;;;4944778;28;20166;-79
2023/04/29 06:44:02;;;;;;;22.17;12.75;;;;;;;;;;4945830;28;20048;-80
2023/04/29 06:46:51;;;;;;;23.20;12.63;;;;;;;;;;4931077;28;20048;-80
2023/04/29 06:49:25;;;;;;;23.63;12.95;;;;;;;;;;4934018;28;20119;-81
2023/04/29 06:51:52;;;;;;;27.00;14.32;;;;;;;;;;4932373;29;20044;-79
2023/04/29 06:54:20;;;;;;;24.13;12.27;;;;;;;;;;4932058;29;20036;-79
2023/04/29 06:56:48;;;;;;;20.70;11.57;;;;;;;;;;4925845;28;20085;-78
2023/04/29 06:59:16;;;;;;;20.75;12.23;;;;;;;;;;4950861;28;20047;-79
2023/04/29 07:01:43;;;;;;;18.10;10.80;;;;;;;;;;4949981;28;20527;-80
2023/04/29 07:04:11;;;;;;;23.83;12.93;;;;;;;;;;4944513;28;20064;-80
2023/04/29 07:06:38;;;;;;;21.63;11.95;;;;;;;;;;4937594;28;20047;-82
2023/04/29 07:09:05;;;;;;;22.40;12.23;;;;;;;;;;4935671;28;20071;-78
2023/04/29 07:11:31;;;;;;;23.15;12.70;;;;;;;;;;4930045;28;20172;-82
2023/04/29 07:13:58;;;;;;;22.92;12.70;;;;;;;;;;4931053;28;20054;-79
2023/04/29 07:16:28;;;;;;;22.17;12.57;;;;;;;;;;4928788;28;20115;-83
2023/04/29 07:18:55;;;;;;;21.52;12.60;;;;;;;;;;4953287;28;20051;-81
2023/04/29 07:21:21;;;;;;;21.30;11.95;;;;;;;;;;4967066;28;20517;-80
2023/04/29 07:23:48;;;;;;;17.38;10.57;;;;;;;;;;4950893;28;20040;-81
2023/04/29 07:26:15;;;;;;;18.13;10.25;;;;;;;;;;4934040;28;20083;-80
2023/04/29 07:28:44;;;;;;;16.48;10.10;;;;;;;;;;4941835;28;20079;-79
2023/04/29 07:31:11;;;;;;;19.80;10.23;;;;;;;;;;4937405;28;20090;-80
2023/04/29 07:33:37;;;;;;;15.40;9.57;;;;;;;;;;4937995;28;20067;-81
2023/04/29 07:36:06;;;;;;;14.98;9.15;;;;;;;;;;4941835;28;20716;-80
2023/04/29 07:38:33;;;;;;;17.95;9.60;;;;;;;;;;4946355;28;20606;-82
2023/04/29 07:41:00;;;;;;;15.88;9.40;;;;;;;;;;4931905;28;20043;-81
2023/04/29 07:43:27;;;;;;;14.52;8.48;;;;;;;;;;4934576;29;20181;-81
2023/04/29 07:45:53;;;;;;;15.85;8.98;;;;;;;;;;4931956;29;20048;-81
2023/04/29 07:48:20;;;;;;;14.07;8.73;;;;;;;;;;4932802;28;20507;-81
2023/04/29 07:50:48;;;;;;;15.10;7.95;;;;;;;;;;4946686;28;20067;-80
2023/04/29 07:53:16;;;;;;;11.27;6.68;;;;;;;;;;4936043;28;20047;-81
2023/04/29 07:55:43;;;;;;;11.50;7.07;;;;;;;;;;4946912;28;20055;-80
2023/04/29 07:58:10;;;;;;;11.95;7.00;;;;;;;;;;4943765;28;20098;-80
2023/04/29 08:00:42;;;;;;;16.27;7.32;;;;;;;;;;4952273;28;20095;-84
2023/04/29 08:03:09;;;;;;;11.05;6.80;;;;;;;;;;4940949;28;20074;-84
2023/04/29 08:05:36;;;;;;;16.38;7.15;;;;;;;;;;4947262;28;20079;-80
2023/04/29 08:08:06;;;;;;;10.80;6.53;;;;;;;;;;4932691;29;20048;-80
2023/04/29 08:10:36;;;;;;;9.43;6.25;;;;;;;;;;4963766;28;20083;-79
2023/04/29 08:13:03;;;;;;;9.40;5.80;;;;;;;;;;4932330;28;20059;-82
2023/04/29 08:15:30;;;;;;;9.98;5.72;;;;;;;;;;4932708;28;20052;-82
2023/04/29 08:17:59;;;;;;;9.50;6.15;;;;;;;;;;4945873;28;20056;-82
2023/04/29 08:20:27;;;;;;;9.73;5.97;;;;;;;;;;4938886;28;20098;-78
2023/04/29 08:22:54;;;;;;;9.48;6.25;;;;;;;;;;4941057;28;20347;-80
2023/04/29 08:25:21;;;;;;;10.70;6.15;;;;;;;;;;4931391;28;20215;-79
2023/04/29 08:27:47;;;;;;;8.95;5.95;;;;;;;;;;4930798;28;20083;-82
2023/04/29 08:30:14;;;;;;;10.20;6.10;;;;;;;;;;4946626;28;20254;-78
2023/04/29 08:32:41;;;;;;;10.40;5.65;;;;;;;;;;4948918;28;20052;-81
2023/04/29 08:35:07;;;;;;;8.38;4.85;;;;;;;;;;4937804;28;20047;-80
2023/04/29 08:37:34;;;;;;;10.90;5.20;;;;;;;;;;4932859;28;20076;-81
2023/04/29 08:40:01;;;;;;;8.48;5.47;;;;;;;;;;4933433;29;20040;-81
2023/04/29 08:42:31;;;;;;;7.30;4.85;;;;;;;;;;4932824;28;20044;-78
2023/04/29 08:44:58;;;;;;;7.78;4.60;;;;;;;;;;4951137;28;20039;-83
2023/04/29 08:47:26;;;;;;;7.72;4.50;;;;;;;;;;4953230;28;20054;-82
2023/04/29 08:49:53;;;;;;;6.15;4.00;;;;;;;;;;4954332;28;20356;-81
2023/04/29 08:52:19;;;;;;;7.60;4.72;;;;;;;;;;4937236;28;20047;-81
2023/04/29 08:54:46;;;;;;;7.80;4.63;;;;;;;;;;4952750;28;20057;-82
2023/04/29 08:57:13;;;;;;;6.70;4.03;;;;;;;;;;4942781;28;20059;-83
2023/04/29 08:59:40;;;;;;;8.60;4.60;;;;;;;;;;4934686;29;20059;-81
2023/04/29 09:02:07;;;;;;;10.85;4.30;;;;;;;;;;4934805;29;20063;-82
2023/04/29 09:04:51;;;;;;;9.82;4.93;;;;;;;;;;4950711;28;20054;-82
2023/04/29 09:07:19;;;;;;;7.00;4.68;;;;;;;;;;4932080;29;20048;-82
2023/04/29 09:09:46;;;;;;;7.07;4.88;;;;;;;;;;4947072;28;20127;-84
2023/04/29 09:12:12;;;;;;;9.30;5.32;;;;;;;;;;4940487;29;20599;-82
2023/04/29 09:14:39;;;;;;;8.95;5.70;;;;;;;;;;4938257;28;20054;-83
2023/04/29 09:17:06;;;;;;;11.40;5.32;;;;;;;;;;4937297;29;20044;-81
2023/04/29 09:19:33;;;;;;;11.70;6.45;;;;;;;;;;4921229;29;20047;-81
2023/04/29 09:22:01;;;;;;;10.80;5.78;;;;;;;;;;4948356;28;20147;-83
2023/04/29 09:24:28;;;;;;;11.57;6.78;;;;;;;;;;4946382;28;20075;-81
2023/04/29 09:26:55;;;;;;;9.70;6.20;;;;;;;;;;4930956;29;20135;-83
2023/04/29 09:29:22;;;;;;;9.45;5.93;;;;;;;;;;4950702;28;20039;-83
2023/04/29 09:31:52;;;;;;;9.52;6.10;;;;;;;;;;4930258;28;20044;-82
2023/04/29 09:34:31;;;;;;;10.00;6.03;;;;;;;;;;4930342;28;20044;-83
2023/04/29 09:36:58;;;;;;;9.07;5.80;;;;;;;;;;4932616;28;20047;-82
2023/04/29 09:39:25;;;;;;;9.52;5.82;;;;;;;;;;4932050;28;20063;-81
2023/04/29 09:41:51;;;;;;;9.38;5.93;;;;;;;;;;4917191;28;20043;-82
2023/04/29 09:44:32;;;;;;;8.25;5.68;;;;;;;;;;4934391;28;20040;-82
2023/04/29 09:47:02;;;;;;;7.95;5.47;;;;;;;;;;4934389;28;20106;-82
2023/04/29 09:49:31;;;;;;;9.10;5.78;;;;;;;;;;4937255;28;20055;-84
2023/04/29 09:52:02;;;;;;;9.13;6.05;;;;;;;;;;4931098;28;20314;-81
2023/04/29 09:54:30;;;;;;;10.52;7.43;;;;;;;;;;4933908;28;20051;-82
2023/04/29 09:56:57;;;;;;;17.15;9.02;;;;;;;;;;4951934;28;20066;-81
2023/04/29 09:59:24;;;;;;;18.02;10.40;;;;;;;;;;4953560;28;20103;-80
2023/04/29 10:01:52;;;;;;;18.13;11.68;;;;;;;;;;4954162;28;20140;-80
2023/04/29 10:04:20;;;;;;;20.02;11.95;;;;;;;;;;4969440;28;20043;-81
2023/04/29 10:06:48;;;;;;;20.67;12.70;;;;;;;;;;4971535;28;20043;-85
2023/04/29 10:09:15;;;;;;;24.55;13.88;;;;;;;;;;4973875;28;20047;-82
2023/04/29 10:11:43;;;;;;;28.25;15.82;;;;;;;;;;4956357;28;20053;-81
2023/04/29 10:14:20;;;;;;;27.35;16.75;;;;;;;;;;4954006;28;20073;-82
2023/04/29 10:17:08;;;;;;;29.98;18.25;;;;;;;;;;4959360;28;20047;-81
2023/04/29 10:19:40;;;;;;;30.38;18.88;;;;;;;;;;4960868;28;20070;-81
2023/04/29 10:22:08;;;;;;;28.50;18.63;;;;;;;;;;4973823;28;20047;-80
2023/04/29 10:24:36;;;;;;;35.67;18.83;;;;;;;;;;4954271;28;20073;-82
2023/04/29 10:27:05;;;;;;;30.73;18.38;;;;;;;;;;4966584;28;20054;-82
2023/04/29 10:29:33;;;;;;;31.05;18.92;;;;;;;;;;4942283;28;20065;-83
2023/04/29 10:32:01;;;;;;;33.80;18.63;;;;;;;;;;4934200;29;20177;-84
2023/04/29 10:34:28;;;;;;;29.58;18.05;;;;;;;;;;4948502;28;20119;-78
2023/04/29 10:36:55;;;;;;;30.98;19.35;;;;;;;;;;4968488;28;20067;-80
2023/04/29 10:39:57;;;;;;;35.10;20.92;;;;;;;;;;4942170;28;20048;-83
2023/04/29 10:42:42;;;;;;;36.03;21.25;;;;;;;;;;4908323;29;20256;-80
2023/04/29 10:45:17;;;;;;;36.83;21.30;;;;;;;;;;4930893;28;20118;-80
2023/04/29 10:48:13;;;;;;;37.57;22.33;;;;;;;;;;4935683;28;20060;-84
2023/04/29 10:50:44;;;;;;;39.83;20.80;;;;;;;;;;4941904;28;20043;-83
2023/04/29 10:53:13;;;;;;;39.17;23.05;;;;;;;;;;4956361;28;20484;-83
2023/04/29 10:55:40;;;;;;;37.67;22.23;;;;;;;;;;4953489;28;20062;-83
2023/04/29 10:58:25;;;;;;;38.90;23.50;;;;;;;;;;4952526;28;20051;-83
2023/04/29 11:00:52;;;;;;;40.53;23.58;;;;;;;;;;4957907;28;20143;-80
2023/04/29 11:03:38;;;;;;;39.33;23.60;;;;;;;;;;4958083;28;20047;-84
2023/04/29 11:06:08;;;;;;;41.38;22.88;;;;;;;;;;4958434;28;20051;-80
2023/04/29 11:08:42;;;;;;;37.17;22.48;;;;;;;;;;4960198;28;20054;-82
2023/04/29 11:11:08;;;;;;;38.78;22.58;;;;;;;;;;4945956;28;20044;-84
2023/04/29 11:13:38;;;;;;;36.83;23.05;;;;;;;;;;4944318;28;20050;-81
2023/04/29 11:16:05;;;;;;;36.97;22.92;;;;;;;;;;4943279;28;20068;-81
2023/04/29 11:18:33;;;;;;;38.67;23.63;;;;;;;;;;4942142;28;20075;-80
2023/04/29 11:21:05;;;;;;;35.70;22.70;;;;;;;;;;4940463;28;20071;-81
2023/04/29 11:23:35;;;;;;;36.30;22.45;;;;;;;;;;4961043;28;20075;-80
2023/04/29 11:26:02;;;;;;;33.78;21.67;;;;;;;;;;4975004;28;20504;-79
2023/04/29 11:28:29;;;;;;;30.50;19.20;;;;;;;;;;4973304;28;20040;-81
2023/04/29 11:30:59;;;;;;;31.67;19.55;;;;;;;;;;4937317;28;20415;-80
2023/04/29 11:33:26;;;;;;;29.48;18.65;;;;;;;;;;4932818;28;20058;-80
2023/04/29 11:35:53;;;;;;;28.88;18.55;;;;;;;;;;4935419;28;20115;-81
2023/04/29 11:38:24;;;;;;;28.38;17.90;;;;;;;;;;4955329;29;20048;-79
2023/04/29 11:40:51;;;;;;;24.70;17.23;;;;;;;;;;4939738;29;20047;-79
2023/04/29 11:43:18;;;;;;;24.55;15.98;;;;;;;;;;4940121;29;20105;-79
2023/04/29 11:45:45;;;;;;;23.95;14.63;;;;;;;;;;4937884;28;20083;-82
2023/04/29 11:48:18;;;;;;;20.60;13.88;;;;;;;;;;4952964;29;20047;-81
2023/04/29 11:50:45;;;;;;;20.50;13.77;;;;;;;;;;4940719;29;20118;-79
2023/04/29 11:53:12;;;;;;;20.17;12.88;;;;;;;;;;4953858;29;20059;-81
2023/04/29 11:55:42;;;;;;;19.88;12.55;;;;;;;;;;4956659;28;20051;-79
2023/04/29 11:58:09;;;;;;;23.77;12.45;;;;;;;;;;4951988;28;20051;-79
2023/04/29 12:00:35;;;;;;;22.92;13.95;;;;;;;;;;4954204;29;20135;-81
2023/04/29 12:03:06;;;;;;;20.85;12.07;;;;;;;;;;4943091;29;20079;-78
2023/04/29 12:05:33;;;;;;;21.35;12.48;;;;;;;;;;4942558;29;20046;-79
2023/04/29 12:08:00;;;;;;;20.83;11.60;;;;;;;;;;4938898;29;20063;-81
2023/04/29 12:10:27;;;;;;;22.70;11.77;;;;;;;;;;4955350;29;20043;-80
2023/04/29 12:12:54;;;;;;;18.30;11.15;;;;;;;;;;4954932;29;20102;-82
2023/04/29 12:15:20;;;;;;;17.83;11.70;;;;;;;;;;4940921;29;20119;-83
2023/04/29 12:17:47;;;;;;;17.58;11.10;;;;;;;;;;4950608;28;20070;-79
2023/04/29 12:20:14;;;;;;;19.50;10.90;;;;;;;;;;4950109;28;20464;-79
2023/04/29 12:22:42;;;;;;;16.95;10.07;;;;;;;;;;4961961;28;20051;-81
2023/04/29 12:25:09;;;;;;;13.93;8.95;;;;;;;;;;4960261;28;20050;-78
2023/04/29 12:27:38;;;;;;;14.23;8.95;;;;;;;;;;4941285;28;20472;-81
2023/04/29 12:30:08;;;;;;;12.68;8.73;;;;;;;;;;4947128;28;20047;-81
2023/04/29 12:32:35;;;;;;;13.13;8.10;;;;;;;;;;4952758;28;20074;-80
2023/04/29 12:35:02;;;;;;;13.60;7.55;;;;;;;;;;4947761;28;20055;-80
2023/04/29 12:37:29;;;;;;;11.93;6.93;;;;;;;;;;4934611;29;20044;-79
2023/04/29 12:39:55;;;;;;;10.00;6.45;;;;;;;;;;4960069;28;20097;-82
2023/04/29 12:42:22;;;;;;;11.55;7.60;;;;;;;;;;4952538;28;20051;-79
2023/04/29 12:44:48;;;;;;;12.10;7.63;;;;;;;;;;4953615;28;20157;-83
2023/04/29 12:47:15;;;;;;;14.00;8.25;;;;;;;;;;4958851;28;20077;-80
2023/04/29 12:49:43;;;;;;;14.68;8.48;;;;;;;;;;4938724;28;20062;-79
2023/04/29 12:52:10;;;;;;;12.00;8.70;;;;;;;;;;4964356;28;20058;-80
2023/04/29 12:54:39;;;;;;;12.85;8.60;;;;;;;;;;4935391;28;20040;-80
2023/04/29 12:57:06;;;;;;;12.45;8.55;;;;;;;;;;4945852;28;20083;-82
2023/04/29 12:59:34;;;;;;;12.77;8.68;;;;;;;;;;4937004;28;20047;-81
2023/04/29 13:02:01;;;;;;;12.32;8.63;;;;;;;;;;4939370;28;20482;-82
2023/04/29 13:04:28;;;;;;;15.25;8.27;;;;;;;;;;4938138;29;20074;-80
2023/04/29 13:06:59;;;;;;;10.75;7.95;;;;;;;;;;4952027;28;20619;-81
2023/04/29 13:09:26;;;;;;;11.88;7.75;;;;;;;;;;4961227;28;20070;-84
2023/04/29 13:11:52;;;;;;;13.30;9.15;;;;;;;;;;4957318;28;20051;-86
2023/04/29 13:14:19;;;;;;;17.85;10.95;;;;;;;;;;4961086;28;20051;-80
2023/04/29 13:16:45;;;;;;;15.73;10.85;;;;;;;;;;4951205;28;20123;-82
2023/04/29 13:19:12;;;;;;;20.67;12.68;;;;;;;;;;4960217;28;20043;-81
2023/04/29 13:21:58;;;;;;;17.70;12.27;;;;;;;;;;4956112;29;20069;-84
2023/04/29 13:24:26;;;;;;;19.08;13.00;;;;;;;;;;4955643;28;20511;-85
2023/04/29 13:26:53;;;;;;;19.83;12.80;;;;;;;;;;4957073;28;20047;-84
2023/04/29 13:29:19;;;;;;;17.88;12.90;;;;;;;;;;4949378;28;20109;-82
2023/04/29 13:31:46;;;;;;;18.13;12.57;;;;;;;;;;4955060;28;20047;-83
2023/04/29 13:34:13;;;;;;;21.38;12.65;;;;;;;;;;4954586;28;20039;-81
2023/04/29 13:36:39;;;;;;;19.92;12.82;;;;;;;;;;4966033;28;20047;-86
2023/04/29 13:39:06;;;;;;;21.75;13.55;;;;;;;;;;4981555;28;20050;-84
2023/04/29 13:41:33;;;;;;;20.88;13.35;;;;;;;;;;4957297;29;20126;-85
2023/04/29 13:44:01;;;;;;;24.08;13.30;;;;;;;;;;4939991;28;20047;-83
2023/04/29 13:46:28;;;;;;;22.85;14.20;;;;;;;;;;4964445;28;20047;-78
2023/04/29 13:48:57;;;;;;;24.15;15.15;;;;;;;;;;4957705;28;23254;-83
2023/04/29 13:51:43;;;;;;;23.08;14.52;;;;;;;;;;4952232;28;20055;-83
2023/04/29 13:54:13;;;;;;;18.52;12.50;;;;;;;;;;4937233;28;20062;-80
2023/04/29 13:56:42;;;;;;;19.05;12.00;;;;;;;;;;4946442;28;20058;-80
2023/04/29 13:59:32;;;;;;;21.42;11.52;;;;;;;;;;4933657;29;20054;-82
2023/04/29 14:02:01;;;;;;;19.38;11.57;;;;;;;;;;4947896;28;20359;-85
2023/04/29 14:04:31;;;;;;;17.50;11.57;;;;;;;;;;4933724;29;20043;-84
2023/04/29 14:06:57;;;;;;;17.15;11.48;;;;;;;;;;4939832;29;20108;-84
2023/04/29 14:09:25;;;;;;;18.77;11.43;;;;;;;;;;4941205;29;20056;-82
2023/04/29 14:11:51;;;;;;;17.05;10.77;;;;;;;;;;4956070;28;20055;-84
2023/04/29 14:14:18;;;;;;;17.75;11.48;;;;;;;;;;4953847;28;20043;-84
2023/04/29 14:16:44;;;;;;;20.65;11.23;;;;;;;;;;4933474;28;20481;-84
2023/04/29 14:19:11;;;;;;;18.75;12.00;;;;;;;;;;4947204;28;20503;-84
2023/04/29 14:21:38;;;;;;;19.52;11.27;;;;;;;;;;4932413;28;20135;-77
2023/04/29 14:24:05;;;;;;;17.17;11.68;;;;;;;;;;4931906;29;20046;-84
2023/04/29 14:26:31;;;;;;;19.13;11.95;;;;;;;;;;4948505;28;20548;-83
2023/04/29 14:28:58;;;;;;;18.75;12.88;;;;;;;;;;4934590;28;20051;-82
2023/04/29 14:31:29;;;;;;;27.60;16.00;;;;;;;;;;4938516;28;20158;-81
2023/04/29 14:33:56;;;;;;;24.35;15.43;;;;;;;;;;4940362;28;20295;-82